リヤド の空港の天気 - METARとTAF

キング・ハーリド国際空港(リヤド) ( OERK / RUH ) - サウジアラビア リヤド
飛行場実況気象(Metar)
観測時間06/17 22:00 AST (06/17 19:00 UTC)
風向・風速北北東 4m/s
視程10km以上
天気現象
なし
気温38℃
湿度9%
気圧1009hPa
METAROERK 171900Z 02008KT CAVOK 38/M01 Q1009 NOSIG
過去の天気等 Google飛行場航空写真 Wunderground天気予報

過去48時間のMETAR

飛行場予報(TAF)
発表時間: 6/17 20:00 AST (6/17 17:00 UTC)
予報対象時間: 17日21時 AST ~ 19日3時 AST
風向・風速東北東 4m/s
視程7000m
なし
TAF OERK 171700Z 1718/1824 06008KT 7000 NSC